Time;durP1;ratioP1;P1;durP2;ratioP2;P2;SDS_P1;SDS_P2;PMS_P1;PMS_P2;Temp;Humidity;BMP_temperature;BMP_pressure;BME280_temperature;BME280_humidity;BME280_pressure;Samples;Min_cycle;Max_cycle;Signal;HPM_P1;HPM_P2
2022/05/19 00:02:13;;;;;;;0.80;0.80;;;15.80;99.40;;;;;;5035097;28;20394;-71
2022/05/19 00:04:39;;;;;;;0.30;0.30;;;15.80;99.60;;;;;;5035172;28;20805;-70
2022/05/19 00:07:05;;;;;;;0.30;0.30;;;15.70;99.50;;;;;;5035154;28;20403;-70
2022/05/19 00:09:32;;;;;;;0.40;0.40;;;15.80;99.60;;;;;;5034870;28;20934;-69
2022/05/19 00:12:03;;;;;;;0.50;0.50;;;15.70;99.50;;;;;;5035015;28;20471;-71
2022/05/19 00:14:28;;;;;;;0.40;0.40;;;15.70;99.60;;;;;;5034898;28;20480;-71
2022/05/19 00:16:56;;;;;;;0.30;0.30;;;15.70;99.90;;;;;;5034925;28;20817;-69
2022/05/19 00:19:22;;;;;;;0.30;0.30;;;15.70;99.60;;;;;;5034453;28;20289;-70
2022/05/19 00:21:48;;;;;;;0.30;0.30;;;15.70;99.50;;;;;;5034693;28;20410;-70
2022/05/19 00:24:14;;;;;;;0.80;0.80;;;15.60;99.70;;;;;;5034517;28;20409;-70
2022/05/19 00:26:40;;;;;;;0.40;0.40;;;15.60;99.50;;;;;;5034643;28;20488;-70
2022/05/19 00:29:06;;;;;;;0.30;0.30;;;15.50;99.70;;;;;;5034441;28;20501;-71
2022/05/19 00:31:32;;;;;;;0.30;0.30;;;15.50;99.60;;;;;;5034802;28;20406;-70
2022/05/19 00:33:59;;;;;;;0.30;0.30;;;15.50;99.80;;;;;;5034381;28;20405;-70
2022/05/19 00:36:25;;;;;;;0.60;0.60;;;15.50;99.90;;;;;;5034797;28;20890;-70
2022/05/19 00:38:51;;;;;;;0.30;0.30;;;15.50;99.90;;;;;;5034440;28;20428;-69
2022/05/19 00:41:17;;;;;;;0.30;0.30;;;15.50;99.60;;;;;;5034358;28;20894;-69
2022/05/19 00:43:46;;;;;;;0.40;0.40;;;15.50;99.50;;;;;;5034335;28;20209;-71
2022/05/19 00:46:21;;;;;;;0.40;0.40;;;15.50;99.80;;;;;;5034381;28;20766;-69
2022/05/19 00:48:55;;;;;;;0.30;0.30;;;15.40;99.90;;;;;;5034323;28;20428;-69
2022/05/19 00:51:33;;;;;;;0.30;0.30;;;15.40;99.90;;;;;;5034382;28;20940;-70
2022/05/19 00:53:59;;;;;;;0.40;0.40;;;15.30;99.90;;;;;;5033957;28;20906;-69
2022/05/19 00:56:34;;;;;;;0.30;0.30;;;15.30;99.90;;;;;;5034202;28;20443;-69
2022/05/19 00:59:07;;;;;;;0.93;0.93;;;15.30;99.90;;;;;;5034139;28;20191;-69
2022/05/19 01:01:35;;;;;;;0.30;0.30;;;15.20;99.90;;;;;;5034118;28;20401;-70
2022/05/19 01:04:10;;;;;;;0.30;0.30;;;15.30;99.90;;;;;;5033835;28;20402;-70
2022/05/19 01:06:38;;;;;;;0.30;0.30;;;15.20;99.90;;;;;;5033969;28;20397;-69
2022/05/19 01:09:08;;;;;;;0.30;0.30;;;15.20;99.70;;;;;;5033927;28;20523;-70
2022/05/19 01:11:36;;;;;;;0.30;0.30;;;15.20;99.80;;;;;;5033793;28;20404;-71
2022/05/19 01:14:02;;;;;;;0.30;0.30;;;15.20;99.90;;;;;;5033594;28;20401;-70
2022/05/19 01:16:29;;;;;;;0.97;0.97;;;15.20;99.80;;;;;;5033551;28;20406;-68
2022/05/19 01:18:55;;;;;;;0.30;0.30;;;15.10;99.90;;;;;;5033508;28;21135;-70
2022/05/19 01:21:22;;;;;;;0.50;0.50;;;15.00;99.90;;;;;;5033872;28;20493;-70
2022/05/19 01:23:56;;;;;;;0.30;0.30;;;15.10;99.90;;;;;;5033626;28;20467;-68
2022/05/19 01:26:28;;;;;;;0.30;0.30;;;14.90;99.90;;;;;;5033773;28;20397;-69
2022/05/19 01:28:57;;;;;;;0.40;0.40;;;15.00;99.90;;;;;;5033279;28;20421;-71
2022/05/19 01:31:35;;;;;;;0.73;0.73;;;15.00;99.90;;;;;;5033327;28;20497;-70
2022/05/19 01:34:03;;;;;;;0.73;0.73;;;15.00;99.60;;;;;;5033288;28;20440;-69
2022/05/19 01:36:29;;;;;;;0.30;0.30;;;15.10;99.50;;;;;;5033651;28;20400;-71
2022/05/19 01:39:18;;;;;;;1.70;1.27;;;15.10;99.80;;;;;;5033581;28;20437;-69
2022/05/19 01:42:05;;;;;;;0.30;0.30;;;15.00;99.70;;;;;;5033484;28;20959;-70
2022/05/19 01:44:38;;;;;;;0.30;0.30;;;15.10;99.60;;;;;;5033652;28;20404;-70
2022/05/19 01:47:04;;;;;;;0.30;0.30;;;15.00;99.90;;;;;;5033447;28;20402;-70
2022/05/19 01:49:37;;;;;;;0.30;0.30;;;15.00;99.90;;;;;;5033518;28;20450;-69
2022/05/19 01:52:39;;;;;;;0.30;0.30;;;15.00;99.80;;;;;;5032018;28;20179;-70
2022/05/19 01:55:25;;;;;;;0.30;0.30;;;15.00;99.30;;;;;;5033311;28;20459;-70
2022/05/19 01:57:59;;;;;;;0.30;0.30;;;15.10;99.70;;;;;;5033190;28;20394;-69
2022/05/19 02:00:27;;;;;;;0.40;0.40;;;15.00;99.80;;;;;;5033242;28;20390;-70
2022/05/19 02:02:53;;;;;;;0.57;0.57;;;15.10;99.70;;;;;;5033181;28;20409;-70
2022/05/19 02:05:44;;;;;;;0.30;0.30;;;15.00;99.80;;;;;;5033296;28;20412;-71
2022/05/19 02:08:17;;;;;;;0.30;0.30;;;15.00;99.70;;;;;;5033833;28;20201;-71
2022/05/19 02:10:47;;;;;;;0.30;0.30;;;15.00;99.90;;;;;;5033222;28;20412;-70
2022/05/19 02:13:14;;;;;;;0.30;0.30;;;15.00;99.90;;;;;;5033023;28;20419;-70
2022/05/19 02:15:43;;;;;;;0.30;0.30;;;15.00;99.90;;;;;;5033145;28;20464;-71
2022/05/19 02:18:09;;;;;;;0.30;0.30;;;15.00;99.90;;;;;;5033452;28;20432;-71
2022/05/19 02:20:36;;;;;;;0.30;0.30;;;14.90;99.90;;;;;;5032806;28;20467;-69
2022/05/19 02:23:03;;;;;;;0.30;0.30;;;14.80;99.90;;;;;;5032928;28;20408;-70
2022/05/19 02:25:45;;;;;;;0.30;0.30;;;14.80;99.90;;;;;;5033091;28;20412;-71
2022/05/19 02:28:32;;;;;;;0.40;0.40;;;14.80;99.90;;;;;;5033024;28;20475;-70
2022/05/19 02:30:59;;;;;;;0.30;0.30;;;14.80;99.90;;;;;;5032934;28;20409;-71
2022/05/19 02:33:25;;;;;;;0.40;0.40;;;14.80;99.90;;;;;;5032811;28;20405;-69
2022/05/19 02:35:51;;;;;;;0.40;0.40;;;14.90;99.90;;;;;;5033055;28;20551;-70
2022/05/19 02:38:19;;;;;;;0.30;0.30;;;14.90;99.90;;;;;;5032872;28;20441;-69
2022/05/19 02:40:45;;;;;;;0.47;0.47;;;14.80;99.90;;;;;;5033576;28;20419;-69
2022/05/19 02:43:12;;;;;;;0.30;0.30;;;14.80;99.90;;;;;;5035164;28;20914;-71
2022/05/19 02:45:39;;;;;;;0.30;0.30;;;14.70;99.90;;;;;;5036666;28;20417;-70
2022/05/19 02:48:06;;;;;;;0.67;0.60;;;14.60;99.90;;;;;;5036625;28;20511;-70
2022/05/19 02:50:32;;;;;;;0.30;0.30;;;14.60;99.90;;;;;;5036339;28;20424;-69
2022/05/19 02:52:58;;;;;;;0.30;0.30;;;14.70;99.90;;;;;;5036373;28;20443;-71
2022/05/19 02:55:24;;;;;;;0.33;0.33;;;14.70;99.90;;;;;;5036409;28;20452;-70
2022/05/19 02:57:51;;;;;;;0.30;0.30;;;14.70;99.90;;;;;;5036389;28;20174;-71
2022/05/19 03:00:22;;;;;;;0.30;0.30;;;14.70;99.90;;;;;;5034937;28;20449;-71
2022/05/19 03:02:48;;;;;;;0.30;0.30;;;14.70;99.90;;;;;;5034806;28;20416;-69
2022/05/19 03:05:20;;;;;;;0.30;0.30;;;14.70;99.90;;;;;;5036229;28;20811;-69
2022/05/19 03:07:46;;;;;;;0.30;0.30;;;14.70;99.90;;;;;;5036180;28;20417;-69
2022/05/19 03:10:13;;;;;;;0.30;0.30;;;14.60;99.90;;;;;;5036152;28;20448;-69
2022/05/19 03:12:38;;;;;;;0.30;0.30;;;14.60;99.90;;;;;;5035961;28;20782;-70
2022/05/19 03:15:05;;;;;;;0.30;0.30;;;14.50;99.90;;;;;;5035913;28;20464;-71
2022/05/19 03:17:31;;;;;;;0.30;0.30;;;14.50;99.90;;;;;;5036009;28;20180;-70
2022/05/19 03:19:57;;;;;;;0.30;0.30;;;14.60;99.90;;;;;;5034408;28;20457;-71
2022/05/19 03:22:25;;;;;;;0.30;0.30;;;14.60;99.90;;;;;;5035807;28;20511;-71
2022/05/19 03:24:51;;;;;;;0.30;0.30;;;14.60;99.90;;;;;;5035990;28;20628;-71
2022/05/19 03:27:20;;;;;;;0.30;0.30;;;14.60;99.90;;;;;;5035939;28;20745;-71
2022/05/19 03:29:46;;;;;;;0.30;0.30;;;14.60;99.90;;;;;;5035707;28;20846;-69
2022/05/19 03:32:11;;;;;;;0.30;0.30;;;14.50;99.90;;;;;;5035615;28;20406;-70
2022/05/19 03:34:37;;;;;;;0.50;0.50;;;14.50;99.90;;;;;;5035650;28;20463;-69
2022/05/19 03:37:05;;;;;;;0.30;0.30;;;14.50;99.90;;;;;;5035767;28;20260;-70
2022/05/19 03:39:30;;;;;;;0.30;0.30;;;14.60;99.90;;;;;;5035494;28;20281;-70
2022/05/19 03:41:56;;;;;;;0.30;0.30;;;14.70;99.90;;;;;;5035620;28;20497;-70
2022/05/19 03:44:22;;;;;;;0.30;0.30;;;14.70;99.90;;;;;;5035322;28;20244;-70
2022/05/19 03:46:47;;;;;;;0.40;0.40;;;14.70;99.90;;;;;;5035502;28;20192;-69
2022/05/19 03:49:13;;;;;;;0.30;0.30;;;14.70;99.90;;;;;;5035316;28;20670;-70
2022/05/19 03:51:41;;;;;;;0.40;0.40;;;14.80;99.90;;;;;;5035453;28;20229;-69
2022/05/19 03:54:07;;;;;;;0.30;0.30;;;14.70;99.90;;;;;;5034522;28;20282;-71
2022/05/19 03:56:33;;;;;;;0.30;0.30;;;14.70;99.90;;;;;;5035388;28;20413;-69
2022/05/19 03:58:59;;;;;;;0.30;0.30;;;14.60;99.90;;;;;;5035106;28;20440;-69
2022/05/19 04:01:25;;;;;;;0.30;0.30;;;14.60;99.90;;;;;;5035167;28;20413;-70
2022/05/19 04:03:51;;;;;;;0.30;0.30;;;14.60;99.90;;;;;;5033790;28;20229;-69
2022/05/19 04:06:18;;;;;;;0.50;0.50;;;14.60;99.90;;;;;;5035179;28;20407;-69
2022/05/19 04:08:44;;;;;;;0.30;0.30;;;14.60;99.90;;;;;;5035112;28;20465;-70
2022/05/19 04:11:10;;;;;;;0.30;0.30;;;14.60;99.90;;;;;;5034883;28;20412;-70
2022/05/19 04:13:36;;;;;;;0.30;0.30;;;14.70;99.90;;;;;;5034750;28;20910;-70
2022/05/19 04:16:02;;;;;;;0.30;0.30;;;14.60;99.90;;;;;;5034842;28;20464;-70
2022/05/19 04:18:28;;;;;;;0.30;0.30;;;14.80;99.90;;;;;;5034763;28;20421;-69
2022/05/19 04:20:54;;;;;;;0.30;0.30;;;14.80;99.90;;;;;;5034819;28;20429;-71
2022/05/19 04:23:20;;;;;;;0.30;0.30;;;14.90;99.90;;;;;;5034517;28;20167;-69
2022/05/19 04:25:46;;;;;;;0.30;0.30;;;15.00;99.90;;;;;;5034752;28;20920;-69
2022/05/19 04:28:12;;;;;;;0.30;0.30;;;15.10;99.90;;;;;;5034529;28;20477;-68
2022/05/19 04:30:37;;;;;;;0.30;0.30;;;15.10;99.90;;;;;;5034737;28;20189;-69
2022/05/19 04:33:04;;;;;;;0.30;0.30;;;15.20;99.90;;;;;;5034348;28;20778;-71
2022/05/19 04:35:30;;;;;;;1.53;0.70;;;15.30;99.90;;;;;;5034724;28;20197;-70
2022/05/19 04:37:57;;;;;;;0.30;0.30;;;15.40;99.90;;;;;;5034520;28;20403;-71
2022/05/19 04:40:23;;;;;;;0.30;0.30;;;15.50;99.90;;;;;;5034387;28;20413;-69
2022/05/19 04:42:50;;;;;;;0.30;0.30;;;15.70;99.90;;;;;;5034444;28;20406;-69
2022/05/19 04:45:17;;;;;;;1.90;1.80;;;15.90;99.90;;;;;;5034336;28;20470;-70
2022/05/19 04:47:43;;;;;;;0.80;0.80;;;16.20;99.90;;;;;;5034392;28;20812;-71
2022/05/19 04:50:10;;;;;;;0.47;0.47;;;16.40;99.90;;;;;;5034240;28;20444;-71
2022/05/19 04:52:36;;;;;;;0.40;0.40;;;16.50;99.90;;;;;;5032832;28;20418;-71
2022/05/19 04:55:03;;;;;;;0.30;0.30;;;16.80;99.90;;;;;;5034073;28;20460;-71
2022/05/19 04:57:29;;;;;;;0.30;0.30;;;17.30;99.90;;;;;;5034111;28;20487;-70
2022/05/19 04:59:55;;;;;;;0.30;0.30;;;17.80;99.30;;;;;;5032672;28;20481;-71
2022/05/19 05:02:20;;;;;;;0.30;0.30;;;18.30;98.60;;;;;;5033939;28;20257;-70
2022/05/19 05:04:46;;;;;;;0.30;0.30;;;18.60;98.00;;;;;;5033237;28;20305;-71
2022/05/19 05:07:11;;;;;;;0.30;0.30;;;18.80;97.30;;;;;;5034068;28;20531;-71
2022/05/19 05:09:37;;;;;;;0.30;0.30;;;18.90;96.70;;;;;;5033750;28;20195;-69
2022/05/19 05:12:04;;;;;;;0.47;0.47;;;18.90;96.30;;;;;;5033714;28;20179;-70
2022/05/19 05:14:30;;;;;;;0.30;0.30;;;18.80;95.60;;;;;;5033763;28;20198;-70
2022/05/19 05:16:56;;;;;;;0.30;0.30;;;18.60;95.90;;;;;;5033865;28;20404;-71
2022/05/19 05:19:22;;;;;;;0.30;0.30;;;18.60;96.20;;;;;;5033708;28;20212;-70
2022/05/19 05:21:50;;;;;;;0.30;0.30;;;18.60;96.30;;;;;;5033647;28;20411;-70
2022/05/19 05:24:17;;;;;;;0.40;0.40;;;18.70;96.40;;;;;;5033548;28;20809;-69
2022/05/19 05:26:43;;;;;;;0.40;0.40;;;18.80;96.40;;;;;;5033692;28;20413;-70
2022/05/19 05:29:08;;;;;;;1.33;1.33;;;18.90;95.90;;;;;;5033524;28;20788;-71
2022/05/19 05:31:34;;;;;;;0.30;0.30;;;19.10;95.70;;;;;;5032449;28;20415;-69
2022/05/19 05:34:00;;;;;;;0.30;0.30;;;19.40;95.60;;;;;;5033454;28;20174;-72
2022/05/19 05:36:26;;;;;;;0.83;0.83;;;19.70;95.60;;;;;;5033595;28;20202;-70
2022/05/19 05:38:51;;;;;;;0.40;0.40;;;20.00;95.50;;;;;;5033662;28;20216;-71
2022/05/19 05:41:17;;;;;;;0.40;0.40;;;20.20;94.90;;;;;;5033583;28;20416;-70
2022/05/19 05:43:43;;;;;;;0.30;0.30;;;20.50;94.40;;;;;;5033418;28;20171;-70
2022/05/19 05:46:14;;;;;;;0.30;0.30;;;20.60;94.30;;;;;;5033518;28;20203;-69
2022/05/19 05:48:41;;;;;;;0.30;0.30;;;20.80;93.90;;;;;;5033473;28;20195;-71
2022/05/19 05:51:08;;;;;;;0.40;0.40;;;21.00;93.30;;;;;;5033370;28;20453;-71
2022/05/19 05:53:35;;;;;;;0.50;0.50;;;21.20;93.20;;;;;;5033220;28;20413;-70
2022/05/19 05:56:03;;;;;;;0.30;0.30;;;21.20;93.30;;;;;;5033319;28;20556;-69
2022/05/19 05:58:30;;;;;;;0.30;0.30;;;21.30;93.40;;;;;;5033464;28;20783;-70
2022/05/19 06:00:56;;;;;;;0.30;0.30;;;21.30;93.40;;;;;;5033222;28;20434;-72
2022/05/19 06:03:22;;;;;;;0.30;0.30;;;21.30;93.40;;;;;;5033116;28;20938;-71
2022/05/19 06:05:48;;;;;;;0.30;0.30;;;21.50;93.40;;;;;;5033212;28;20625;-71
2022/05/19 06:08:14;;;;;;;0.30;0.30;;;21.70;93.40;;;;;;5033109;28;20957;-70
2022/05/19 06:10:40;;;;;;;0.40;0.40;;;21.80;93.40;;;;;;5033207;28;20408;-71
2022/05/19 06:13:07;;;;;;;0.30;0.30;;;22.00;93.00;;;;;;5033108;28;20177;-71
2022/05/19 06:15:32;;;;;;;0.30;0.30;;;22.30;93.00;;;;;;5033715;28;20478;-71
2022/05/19 06:17:58;;;;;;;0.30;0.30;;;23.10;92.60;;;;;;5037029;28;20413;-71
2022/05/19 06:20:27;;;;;;;0.30;0.30;;;24.40;90.90;;;;;;5037094;28;20194;-70
2022/05/19 06:22:53;;;;;;;0.60;0.60;;;25.80;87.70;;;;;;5036932;28;20178;-72
2022/05/19 06:25:21;;;;;;;0.30;0.30;;;27.10;83.00;;;;;;5037224;28;20409;-71
2022/05/19 06:27:49;;;;;;;0.30;0.30;;;28.20;78.90;;;;;;5037053;28;20492;-71
2022/05/19 06:30:15;;;;;;;0.30;0.30;;;29.20;73.70;;;;;;5036925;28;20413;-71
2022/05/19 06:32:42;;;;;;;0.60;0.60;;;30.20;70.40;;;;;;5036787;28;20805;-72
2022/05/19 06:35:09;;;;;;;0.30;0.30;;;31.40;65.30;;;;;;5036833;28;20457;-71
2022/05/19 06:37:35;;;;;;;0.40;0.40;;;32.50;60.50;;;;;;5036907;28;20497;-73
2022/05/19 06:40:01;;;;;;;0.40;0.40;;;33.50;57.00;;;;;;5036780;28;20511;-72
2022/05/19 06:42:27;;;;;;;0.90;0.90;;;34.40;52.90;;;;;;5036693;28;20175;-69
2022/05/19 06:44:52;;;;;;;0.50;0.50;;;35.20;49.50;;;;;;5036600;28;20730;-70
2022/05/19 06:47:18;;;;;;;0.47;0.47;;;35.80;48.00;;;;;;5036588;28;20240;-70
2022/05/19 06:49:51;;;;;;;0.40;0.40;;;36.20;48.50;;;;;;5036340;28;20214;-69
2022/05/19 06:52:22;;;;;;;0.50;0.50;;;36.50;46.80;;;;;;5036633;28;20170;-69
2022/05/19 06:54:51;;;;;;;0.50;0.50;;;36.00;45.60;;;;;;5036416;28;20453;-69
2022/05/19 06:57:20;;;;;;;0.63;0.63;;;35.90;45.70;;;;;;5036473;28;20409;-71
2022/05/19 06:59:47;;;;;;;0.40;0.40;;;36.00;44.40;;;;;;5036357;28;20457;-70
2022/05/19 07:02:13;;;;;;;0.40;0.40;;;36.50;45.60;;;;;;5036308;28;20402;-69
2022/05/19 07:04:40;;;;;;;0.40;0.40;;;36.60;42.40;;;;;;5036400;28;20398;-69
2022/05/19 07:07:07;;;;;;;0.40;0.30;;;36.70;40.50;;;;;;5036211;28;20412;-69
2022/05/19 07:09:34;;;;;;;0.93;0.93;;;36.20;40.40;;;;;;5036108;28;20429;-71
2022/05/19 07:12:00;;;;;;;0.30;0.30;;;36.00;39.40;;;;;;5036196;28;20401;-69
2022/05/19 07:14:27;;;;;;;1.13;0.53;;;36.00;41.50;;;;;;5035907;28;20906;-70
2022/05/19 07:16:52;;;;;;;0.93;0.63;;;35.20;40.00;;;;;;5035933;28;20402;-69
2022/05/19 07:22:05;;;;;;;0.40;0.40;;;35.40;42.00;;;;;;5036257;28;20262;-70
2022/05/19 07:24:31;;;;;;;1.37;0.90;;;36.20;42.30;;;;;;5035921;28;20460;-71
2022/05/19 07:26:59;;;;;;;0.40;0.40;;;36.70;39.60;;;;;;5035469;28;20499;-70
2022/05/19 07:29:26;;;;;;;0.40;0.30;;;36.10;39.30;;;;;;5035301;28;20425;-69
2022/05/19 07:31:55;;;;;;;2.00;1.90;;;36.50;40.20;;;;;;5035897;28;20405;-70
2022/05/19 07:34:23;;;;;;;0.47;0.47;;;36.50;39.90;;;;;;5035494;28;20516;-69
2022/05/19 07:36:48;;;;;;;0.60;0.60;;;36.60;38.20;;;;;;5035758;28;20432;-69
2022/05/19 07:39:15;;;;;;;0.40;0.40;;;36.20;39.30;;;;;;5035517;28;20434;-71
2022/05/19 07:41:43;;;;;;;0.47;0.47;;;36.80;39.80;;;;;;5035444;28;20171;-70
2022/05/19 07:44:10;;;;;;;0.70;0.70;;;37.30;38.90;;;;;;5035265;28;20433;-71
2022/05/19 07:46:36;;;;;;;0.40;0.30;;;37.80;38.50;;;;;;5035544;28;20444;-70
2022/05/19 07:49:02;;;;;;;0.77;0.77;;;38.30;37.60;;;;;;5035315;28;20785;-70
2022/05/19 07:51:36;;;;;;;0.70;0.70;;;38.20;37.30;;;;;;5035248;28;20416;-71
2022/05/19 07:54:06;;;;;;;0.40;0.30;;;38.40;37.50;;;;;;5034877;28;20186;-70
2022/05/19 07:56:31;;;;;;;0.50;0.50;;;38.50;37.80;;;;;;5034906;28;20460;-71
2022/05/19 07:58:57;;;;;;;0.80;0.80;;;39.10;37.90;;;;;;5035101;28;20421;-70
2022/05/19 08:01:23;;;;;;;0.40;0.40;;;38.70;37.70;;;;;;5035093;28;20224;-69
2022/05/19 08:03:48;;;;;;;0.43;0.43;;;38.20;38.70;;;;;;5034950;28;20207;-68
2022/05/19 08:06:14;;;;;;;0.60;0.60;;;38.80;37.30;;;;;;5034898;28;20232;-71
2022/05/19 08:08:40;;;;;;;0.40;0.30;;;39.30;36.70;;;;;;5034936;28;20190;-70
2022/05/19 08:11:07;;;;;;;0.63;0.63;;;39.10;37.70;;;;;;5034870;28;20195;-69
2022/05/19 08:16:17;;;;;;;1.03;1.00;;;37.80;37.90;;;;;;5035185;28;20802;-70
2022/05/19 08:18:43;;;;;;;1.13;1.07;;;38.30;38.00;;;;;;5034920;28;20436;-71
2022/05/19 08:21:13;;;;;;;0.93;0.93;;;38.90;38.30;;;;;;5034608;28;20425;-71
2022/05/19 08:23:43;;;;;;;0.73;0.73;;;38.30;37.10;;;;;;5034644;28;20592;-69
2022/05/19 08:26:09;;;;;;;0.50;0.50;;;37.40;38.70;;;;;;5034866;28;20560;-71
2022/05/19 08:28:35;;;;;;;0.63;0.63;;;37.70;37.90;;;;;;5034500;28;20433;-70
2022/05/19 08:31:11;;;;;;;0.70;0.70;;;38.20;37.70;;;;;;5034542;28;20409;-70
2022/05/19 08:33:38;;;;;;;0.60;0.60;;;39.00;36.00;;;;;;5034478;28;20436;-70
2022/05/19 08:36:04;;;;;;;0.40;0.40;;;39.10;36.00;;;;;;5034465;28;20406;-71
2022/05/19 08:38:31;;;;;;;0.30;0.30;;;38.70;35.70;;;;;;5034212;28;20429;-68
2022/05/19 08:41:08;;;;;;;1.33;1.17;;;37.40;36.70;;;;;;5034506;28;20402;-70
2022/05/19 08:43:44;;;;;;;0.60;0.60;;;37.70;37.30;;;;;;5034069;28;20409;-71
2022/05/19 08:46:18;;;;;;;0.60;0.60;;;38.20;37.00;;;;;;5034680;28;21064;-69
2022/05/19 08:48:46;;;;;;;0.70;0.70;;;37.90;38.30;;;;;;5032936;28;20496;-70
2022/05/19 08:51:13;;;;;;;0.40;0.40;;;37.20;39.30;;;;;;5034268;28;20454;-70
2022/05/19 08:53:42;;;;;;;0.40;0.30;;;36.80;37.10;;;;;;5033923;28;20497;-69
2022/05/19 08:56:25;;;;;;;0.60;0.60;;;37.50;39.00;;;;;;5033016;28;20999;-71
2022/05/19 08:59:05;;;;;;;1.13;0.93;;;37.10;36.80;;;;;;5034142;28;20948;-70
2022/05/19 09:01:49;;;;;;;0.40;0.30;;;35.50;38.60;;;;;;5034353;28;20416;-70
2022/05/19 09:04:41;;;;;;;0.50;0.50;;;36.50;39.10;;;;;;5033915;28;20912;-70
2022/05/19 09:10:28;;;;;;;0.67;0.67;;;37.20;38.40;;;;;;5033827;28;20440;-70
2022/05/19 09:13:03;;;;;;;0.87;0.87;;;37.30;37.60;;;;;;5033736;28;20405;-70
2022/05/19 09:15:29;;;;;;;0.50;0.40;;;37.10;37.80;;;;;;5033870;28;20913;-71
2022/05/19 09:17:55;;;;;;;0.50;0.50;;;37.70;35.10;;;;;;5033712;28;20414;-70
2022/05/19 09:20:28;;;;;;;0.37;0.30;;;37.40;34.40;;;;;;5033736;28;20445;-70
2022/05/19 09:23:01;;;;;;;0.60;0.60;;;37.00;35.50;;;;;;5033649;28;20414;-71
2022/05/19 09:25:26;;;;;;;0.50;0.50;;;37.30;36.80;;;;;;5033740;28;20449;-70
2022/05/19 09:27:52;;;;;;;0.60;0.60;;;37.50;38.50;;;;;;5033693;28;20468;-70
2022/05/19 09:30:38;;;;;;;0.40;0.40;;;36.90;36.90;;;;;;5033575;28;20254;-70
2022/05/19 09:33:19;;;;;;;0.30;0.30;;;36.90;37.50;;;;;;5033516;28;20406;-71
2022/05/19 09:35:50;;;;;;;0.40;0.40;;;36.90;36.70;;;;;;5033671;28;20504;-71
2022/05/19 09:38:35;;;;;;;0.60;0.60;;;37.20;36.40;;;;;;5033537;28;20480;-69
2022/05/19 09:41:05;;;;;;;0.40;0.40;;;37.00;35.60;;;;;;5033437;28;20414;-70
2022/05/19 09:43:36;;;;;;;0.40;0.30;;;37.00;38.40;;;;;;5033502;28;20735;-70
2022/05/19 09:46:14;;;;;;;0.40;0.30;;;37.40;36.10;;;;;;5033348;28;20479;-69
2022/05/19 09:48:46;;;;;;;0.37;0.37;;;38.00;33.10;;;;;;5033547;28;20433;-69
2022/05/19 09:51:19;;;;;;;0.50;0.40;;;37.80;32.40;;;;;;5031560;28;20504;-70
2022/05/19 09:53:57;;;;;;;0.80;0.60;;;38.00;35.30;;;;;;5033699;28;20401;-70
2022/05/19 09:56:25;;;;;;;0.57;0.57;;;37.70;36.00;;;;;;5033293;28;20466;-70
2022/05/19 09:59:02;;;;;;;0.40;0.30;;;36.30;36.10;;;;;;5033409;28;20469;-70
2022/05/19 10:01:49;;;;;;;0.70;0.70;;;36.50;35.40;;;;;;5033511;28;20948;-70
2022/05/19 10:04:24;;;;;;;0.60;0.60;;;36.50;33.50;;;;;;5033240;28;20402;-71
2022/05/19 10:07:13;;;;;;;0.40;0.30;;;36.40;34.50;;;;;;5033328;28;20444;-69
2022/05/19 10:09:43;;;;;;;0.40;0.40;;;36.50;32.90;;;;;;5033125;28;20422;-70
2022/05/19 10:12:12;;;;;;;0.40;0.30;;;36.00;33.50;;;;;;5033224;28;20394;-69
2022/05/19 10:14:40;;;;;;;0.70;0.70;;;35.10;35.80;;;;;;5033234;28;20851;-70
2022/05/19 10:17:47;;;;;;;1.40;1.30;;;34.90;35.30;;;;;;5033215;28;20420;-69
2022/05/19 10:20:19;;;;;;;0.40;0.40;;;34.50;36.10;;;;;;5031663;28;20469;-70
2022/05/19 10:23:20;;;;;;;0.40;0.40;;;34.50;39.20;;;;;;5033042;28;20914;-68
2022/05/19 10:25:51;;;;;;;0.40;0.30;;;34.00;36.60;;;;;;5029716;28;20465;-69
2022/05/19 10:31:53;;;;;;;0.60;0.60;;;33.30;37.30;;;;;;5032996;28;20460;-68
2022/05/19 10:34:48;;;;;;;0.40;0.40;;;33.30;36.20;;;;;;5032686;28;20425;-70
2022/05/19 10:37:23;;;;;;;1.50;0.70;;;33.30;37.30;;;;;;5032899;28;20405;-68
2022/05/19 10:40:02;;;;;;;1.07;1.07;;;33.30;38.20;;;;;;5032865;28;20429;-69
2022/05/19 10:42:28;;;;;;;0.40;0.40;;;33.30;37.00;;;;;;5032891;28;20413;-69
2022/05/19 10:45:15;;;;;;;0.40;0.40;;;32.80;38.10;;;;;;5033223;28;20460;-69
2022/05/19 10:48:12;;;;;;;0.30;0.30;;;32.60;40.00;;;;;;5032857;28;20171;-68
2022/05/19 10:50:46;;;;;;;1.37;1.37;;;32.40;38.40;;;;;;5032833;28;20413;-70
2022/05/19 10:53:36;;;;;;;0.37;0.37;;;32.20;40.20;;;;;;5032692;28;20399;-69
2022/05/19 10:56:21;;;;;;;0.30;0.30;;;31.50;41.10;;;;;;5033236;28;20445;-69
2022/05/19 10:59:09;;;;;;;0.50;0.50;;;31.20;41.40;;;;;;5032740;28;20440;-70
2022/05/19 11:02:04;;;;;;;0.87;0.87;;;30.90;42.10;;;;;;5032585;28;20902;-70
2022/05/19 11:05:14;;;;;;;0.30;0.30;;;30.60;41.40;;;;;;5025770;28;20509;-69
2022/05/19 11:07:56;;;;;;;0.40;0.30;;;30.60;42.50;;;;;;5030790;28;20418;-70
2022/05/19 11:10:39;;;;;;;3.23;0.60;;;30.10;42.50;;;;;;5036143;28;20408;-70
2022/05/19 11:13:22;;;;;;;0.57;0.57;;;30.20;45.10;;;;;;5035953;28;20398;-68
2022/05/19 11:15:57;;;;;;;0.40;0.40;;;30.30;44.00;;;;;;5036184;28;20421;-70
2022/05/19 11:18:55;;;;;;;2.00;1.50;;;30.50;43.60;;;;;;5036049;28;20421;-68
2022/05/19 11:21:49;;;;;;;0.40;0.40;;;30.50;44.40;;;;;;5035522;28;20475;-69
2022/05/19 11:26:23;;;;;;;0.40;0.40;;;30.40;43.70;;;;;;5035983;28;20429;-70
2022/05/19 11:27:23;;;;;;;0.50;0.50;;;30.00;44.40;;;;;;5035709;28;20425;-69
2022/05/19 11:29:54;;;;;;;1.40;1.33;;;29.80;44.70;;;;;;5035706;28;20516;-70
2022/05/19 11:32:23;;;;;;;1.07;1.07;;;29.70;46.00;;;;;;5035551;28;20971;-68
2022/05/19 11:35:13;;;;;;;0.30;0.30;;;29.70;46.90;;;;;;5036360;28;20509;-69
2022/05/19 11:37:50;;;;;;;0.77;0.60;;;29.60;46.40;;;;;;5035820;28;20405;-68
2022/05/19 11:40:18;;;;;;;0.40;0.40;;;29.50;45.70;;;;;;5035704;28;20877;-70
2022/05/19 11:42:56;;;;;;;0.40;0.40;;;29.60;46.30;;;;;;5035479;28;20410;-68
2022/05/19 11:45:37;;;;;;;0.53;0.53;;;29.50;46.70;;;;;;5035425;28;20460;-69
2022/05/19 11:55:18;;;;;;;0.87;0.87;;;29.30;45.90;;;;;;5033142;28;20789;-69
2022/05/19 11:57:52;;;;;;;0.53;0.53;;;28.90;45.40;;;;;;5035347;28;20762;-70
2022/05/19 12:00:32;;;;;;;0.40;0.40;;;29.00;47.80;;;;;;5035255;28;20402;-68
2022/05/19 12:03:23;;;;;;;0.67;0.40;;;29.10;45.60;;;;;;5034921;28;20844;-71
2022/05/19 12:06:29;;;;;;;0.87;0.87;;;29.10;46.30;;;;;;5033852;28;20876;-70
2022/05/19 12:09:00;;;;;;;0.80;0.80;;;29.30;46.50;;;;;;5024153;28;20804;-70
2022/05/19 12:11:44;;;;;;;0.30;0.30;;;29.70;46.90;;;;;;5035148;28;20406;-69
2022/05/19 12:14:31;;;;;;;0.30;0.30;;;29.90;46.50;;;;;;5034251;28;20417;-68
2022/05/19 12:16:59;;;;;;;1.13;0.70;;;30.00;45.90;;;;;;5033618;28;20453;-69
2022/05/19 12:19:51;;;;;;;0.37;0.37;;;29.90;45.40;;;;;;5033430;28;20972;-70
2022/05/19 12:22:24;;;;;;;0.40;0.40;;;29.90;47.60;;;;;;5034842;28;20412;-69
2022/05/19 12:24:55;;;;;;;1.47;0.47;;;29.70;45.50;;;;;;5035109;28;20453;-70
2022/05/19 12:27:30;;;;;;;0.40;0.40;;;29.70;45.60;;;;;;5034762;28;20438;-70
2022/05/19 12:33:23;;;;;;;0.50;0.50;;;29.60;45.20;;;;;;5034142;28;20396;-69
2022/05/19 12:35:55;;;;;;;0.30;0.30;;;29.30;45.60;;;;;;5032453;28;20421;-70
2022/05/19 12:38:38;;;;;;;0.30;0.30;;;29.20;47.00;;;;;;5034063;28;20429;-70
2022/05/19 12:41:08;;;;;;;0.40;0.40;;;29.10;46.00;;;;;;5033414;28;20496;-69
2022/05/19 12:43:41;;;;;;;0.30;0.30;;;29.00;47.50;;;;;;5034058;28;20410;-70
2022/05/19 12:46:11;;;;;;;0.30;0.30;;;28.90;47.00;;;;;;5034270;28;20515;-69
2022/05/19 12:48:37;;;;;;;0.40;0.40;;;28.70;47.90;;;;;;5034410;28;20954;-69
2022/05/19 12:51:06;;;;;;;0.30;0.30;;;28.50;50.60;;;;;;5033044;28;20496;-68
2022/05/19 12:53:49;;;;;;;0.60;0.60;;;28.40;50.10;;;;;;5033942;28;20174;-69
2022/05/19 12:56:46;;;;;;;0.40;0.40;;;28.40;51.40;;;;;;5034363;28;20384;-69
2022/05/19 12:59:53;;;;;;;0.47;0.47;;;28.10;54.60;;;;;;5034365;28;20428;-68
2022/05/19 13:02:39;;;;;;;1.43;0.63;;;27.60;57.00;;;;;;5033410;28;20420;-69
2022/05/19 13:05:30;;;;;;;0.50;0.50;;;27.00;58.50;;;;;;5034108;28;20453;-68
2022/05/19 13:08:07;;;;;;;0.30;0.30;;;26.60;60.40;;;;;;5034029;28;20732;-69
2022/05/19 13:10:44;;;;;;;0.30;0.30;;;26.40;68.20;;;;;;5033795;28;20380;-69
2022/05/19 13:13:40;;;;;;;0.30;0.30;;;26.20;68.60;;;;;;5033924;28;20774;-68
2022/05/19 13:16:23;;;;;;;0.50;0.50;;;25.90;71.00;;;;;;5034061;28;20784;-68
2022/05/19 13:19:00;;;;;;;0.40;0.40;;;25.70;72.40;;;;;;5034315;28;20444;-69
2022/05/19 13:21:32;;;;;;;3.17;0.80;;;25.40;72.70;;;;;;5034085;28;20796;-69
2022/05/19 13:24:06;;;;;;;0.30;0.30;;;25.30;76.70;;;;;;5033583;28;20377;-68
2022/05/19 13:26:42;;;;;;;0.30;0.30;;;25.10;72.90;;;;;;5033056;28;20457;-69
2022/05/19 13:31:57;;;;;;;0.60;0.53;;;24.50;79.90;;;;;;5033639;28;20408;-69
2022/05/19 13:34:23;;;;;;;0.30;0.30;;;24.00;87.30;;;;;;5033501;28;20408;-68
2022/05/19 13:37:00;;;;;;;0.30;0.30;;;23.70;92.60;;;;;;5033619;28;20471;-70